createdAt,value
2018-07-19T00:01:31.942Z,1.50
2018-07-19T00:03:59.559Z,1.73
2018-07-19T00:06:27.183Z,1.60
2018-07-19T00:08:54.770Z,1.67
2018-07-19T00:11:22.319Z,2.00
2018-07-19T00:13:50.026Z,1.57
2018-07-19T00:16:17.605Z,1.73
2018-07-19T00:18:45.215Z,2.27
2018-07-19T00:21:12.853Z,1.60
2018-07-19T00:23:40.385Z,1.90
2018-07-19T00:26:07.984Z,1.77
2018-07-19T00:28:35.568Z,2.00
2018-07-19T00:31:03.115Z,2.50
2018-07-19T00:33:30.747Z,2.10
2018-07-19T00:35:58.348Z,2.07
2018-07-19T00:38:26.096Z,1.93
2018-07-19T00:40:53.755Z,1.67
2018-07-19T00:43:21.329Z,2.10
2018-07-19T00:45:48.864Z,1.70
2018-07-19T00:48:16.476Z,1.53
2018-07-19T00:50:44.043Z,2.17
2018-07-19T00:53:11.667Z,2.40
2018-07-19T00:55:39.778Z,2.30
2018-07-19T00:58:07.472Z,2.73
2018-07-19T01:00:35.255Z,3.37
2018-07-19T01:03:02.920Z,3.50
2018-07-19T01:05:30.527Z,2.40
2018-07-19T01:07:58.114Z,2.00
2018-07-19T01:10:25.704Z,3.10
2018-07-19T01:12:53.556Z,2.30
2018-07-19T01:15:21.192Z,2.07
2018-07-19T01:17:48.821Z,2.07
2018-07-19T01:20:16.471Z,2.67
2018-07-19T01:22:44.152Z,2.10
2018-07-19T01:25:11.881Z,3.13
2018-07-19T01:27:39.576Z,2.33
2018-07-19T01:30:07.406Z,1.90
2018-07-19T01:32:35.241Z,2.03
2018-07-19T01:35:02.937Z,2.07
2018-07-19T01:37:30.632Z,2.23
2018-07-19T01:39:58.244Z,2.20
2018-07-19T01:42:30.250Z,1.93
2018-07-19T01:44:57.918Z,2.00
2018-07-19T01:47:25.732Z,2.00
2018-07-19T01:49:53.322Z,2.10
2018-07-19T01:52:20.981Z,2.17
2018-07-19T01:54:48.608Z,1.90
2018-07-19T01:57:17.089Z,2.30
2018-07-19T01:59:45.299Z,1.70
2018-07-19T02:02:13.067Z,1.90
2018-07-19T02:04:41.044Z,1.73
2018-07-19T02:07:08.974Z,2.10
2018-07-19T02:09:36.749Z,1.90
2018-07-19T02:12:04.375Z,2.03
2018-07-19T02:14:32.288Z,2.00
2018-07-19T02:17:00.170Z,1.90
2018-07-19T02:19:27.787Z,1.90
2018-07-19T02:21:55.473Z,2.30
2018-07-19T02:24:23.426Z,2.37
2018-07-19T02:26:51.034Z,2.00
2018-07-19T02:29:18.713Z,1.70
2018-07-19T02:31:46.312Z,1.70
2018-07-19T02:34:13.932Z,1.73
2018-07-19T02:36:41.565Z,2.10
2018-07-19T02:39:10.364Z,2.10
2018-07-19T02:41:38.228Z,1.73
2018-07-19T02:44:07.212Z,1.60
2018-07-19T02:46:35.256Z,2.00
2018-07-19T02:49:02.957Z,1.30
2018-07-19T02:51:30.740Z,1.33
2018-07-19T02:53:58.520Z,1.27
2018-07-19T02:56:26.172Z,1.23
2018-07-19T02:58:53.796Z,1.30
2018-07-19T03:01:21.449Z,1.00
2018-07-19T03:03:49.109Z,1.77
2018-07-19T03:06:16.648Z,1.20
2018-07-19T03:08:44.332Z,1.00
2018-07-19T03:11:12.005Z,1.17
2018-07-19T03:13:39.605Z,1.20
2018-07-19T03:16:07.239Z,1.30
2018-07-19T03:18:34.986Z,1.20
2018-07-19T03:21:02.572Z,0.93
2018-07-19T03:23:30.580Z,1.50
2018-07-19T03:25:58.209Z,1.73
2018-07-19T03:28:25.800Z,1.23
2018-07-19T03:30:53.459Z,1.20
2018-07-19T03:33:21.317Z,1.47
2018-07-19T03:35:49.178Z,1.60
2018-07-19T03:38:16.789Z,1.60
2018-07-19T03:40:44.435Z,1.50
2018-07-19T03:43:12.110Z,1.73
2018-07-19T03:45:39.748Z,1.60
2018-07-19T03:48:07.404Z,1.00
2018-07-19T03:50:35.063Z,3.77
2018-07-19T03:53:02.699Z,5.13
2018-07-19T03:55:30.417Z,7.37
2018-07-19T03:57:58.084Z,5.20
2018-07-19T04:00:25.749Z,4.40
2018-07-19T04:02:53.404Z,2.97
2018-07-19T04:05:21.029Z,2.80
2018-07-19T04:07:48.698Z,1.87
2018-07-19T04:10:16.283Z,2.40
2018-07-19T04:12:43.894Z,1.90
2018-07-19T04:15:11.502Z,2.30
2018-07-19T04:17:50.501Z,2.30
2018-07-19T04:20:18.142Z,1.97
2018-07-19T04:22:45.852Z,2.50
2018-07-19T04:25:13.768Z,1.70
2018-07-19T04:27:41.297Z,1.60
2018-07-19T04:30:08.972Z,1.90
2018-07-19T04:32:36.609Z,1.90
2018-07-19T04:35:04.372Z,2.50
2018-07-19T04:37:31.948Z,1.40
2018-07-19T04:39:59.559Z,1.43
2018-07-19T04:42:27.264Z,2.00
2018-07-19T04:44:55.080Z,1.60
2018-07-19T04:47:22.765Z,1.60
2018-07-19T04:49:50.487Z,2.03
2018-07-19T04:52:18.112Z,2.07
2018-07-19T04:54:45.759Z,2.00
2018-07-19T04:57:13.493Z,1.97
2018-07-19T04:59:41.125Z,2.43
2018-07-19T05:02:08.974Z,1.73
2018-07-19T05:04:36.596Z,2.20
2018-07-19T05:07:04.368Z,2.90
2018-07-19T05:09:32.017Z,4.87
2018-07-19T05:11:59.603Z,4.10
2018-07-19T05:14:27.253Z,3.27
2018-07-19T05:16:54.854Z,3.50
2018-07-19T05:19:22.464Z,2.90
2018-07-19T05:21:50.277Z,3.30
2018-07-19T05:24:17.949Z,3.93
2018-07-19T05:26:45.621Z,3.93
2018-07-19T05:29:13.186Z,2.87
2018-07-19T05:31:40.865Z,3.60
2018-07-19T05:34:09.196Z,3.37
2018-07-19T05:36:37.042Z,3.47
2018-07-19T05:39:07.278Z,3.80
2018-07-19T05:41:34.904Z,2.47
2018-07-19T05:44:02.646Z,2.20
2018-07-19T05:46:30.372Z,2.10
2018-07-19T05:48:58.125Z,2.57
2018-07-19T05:51:25.719Z,2.57
2018-07-19T05:53:53.353Z,1.83
2018-07-19T05:56:20.975Z,3.00
2018-07-19T05:58:48.580Z,3.10
2018-07-19T06:01:16.208Z,2.27
2018-07-19T06:03:43.921Z,2.67
2018-07-19T06:06:11.682Z,2.90
2018-07-19T06:08:39.315Z,2.60
2018-07-19T06:11:06.935Z,3.03
2018-07-19T06:13:34.562Z,2.50
2018-07-19T06:16:02.221Z,2.20
2018-07-19T06:18:29.957Z,3.60
2018-07-19T06:20:57.517Z,3.00
2018-07-19T06:23:25.192Z,3.50
2018-07-19T06:25:52.873Z,3.70
2018-07-19T06:28:20.522Z,3.13
2018-07-19T06:30:48.116Z,3.63
2018-07-19T06:33:15.800Z,2.90
2018-07-19T06:35:43.416Z,2.90
2018-07-19T06:38:11.125Z,3.27
2018-07-19T06:40:38.707Z,2.40
2018-07-19T06:43:06.356Z,3.13
2018-07-19T06:45:33.911Z,3.33
2018-07-19T06:48:01.514Z,2.30
2018-07-19T06:50:29.210Z,2.47
2018-07-19T06:52:56.894Z,2.73
2018-07-19T06:55:24.560Z,2.80
2018-07-19T06:57:52.404Z,2.70
2018-07-19T07:00:20.028Z,1.77
2018-07-19T07:02:47.675Z,2.30
2018-07-19T07:05:15.308Z,2.60
2018-07-19T07:07:42.968Z,2.33
2018-07-19T07:10:10.628Z,2.63
2018-07-19T07:12:38.324Z,2.67
2018-07-19T07:15:06.225Z,2.07
2018-07-19T07:17:33.844Z,2.53
2018-07-19T07:20:01.496Z,2.33
2018-07-19T07:22:29.051Z,2.30
2018-07-19T07:24:57.208Z,2.13
2018-07-19T07:27:24.842Z,2.00
2018-07-19T07:29:52.538Z,1.83
2018-07-19T07:32:20.263Z,2.00
2018-07-19T07:34:47.948Z,1.90
2018-07-19T07:37:15.840Z,2.17
2018-07-19T07:39:43.617Z,2.33
2018-07-19T07:42:11.316Z,1.80
2018-07-19T07:44:39.018Z,1.93
2018-07-19T07:47:06.818Z,2.03
2018-07-19T07:49:34.493Z,2.07
2018-07-19T07:52:02.126Z,2.07
2018-07-19T07:54:29.736Z,2.17
2018-07-19T07:56:57.392Z,2.30
2018-07-19T07:59:25.027Z,1.60
2018-07-19T08:01:52.620Z,1.97
2018-07-19T08:04:20.226Z,1.70
2018-07-19T08:06:47.893Z,2.00
2018-07-19T08:09:15.525Z,1.83
2018-07-19T08:11:43.156Z,1.73
2018-07-19T08:14:10.941Z,1.47
2018-07-19T08:16:39.593Z,2.13
2018-07-19T08:19:07.223Z,1.50
2018-07-19T08:21:35.430Z,1.50
2018-07-19T08:24:03.368Z,1.87
2018-07-19T08:26:31.033Z,1.50
2018-07-19T08:28:58.715Z,2.00
2018-07-19T08:31:26.318Z,1.60
2018-07-19T08:33:53.928Z,1.57
2018-07-19T08:36:21.562Z,1.63
2018-07-19T08:38:49.229Z,1.73
2018-07-19T08:41:16.924Z,1.90
2018-07-19T08:43:44.582Z,1.73
2018-07-19T08:46:12.229Z,1.50
2018-07-19T08:48:39.989Z,1.82
2018-07-19T08:51:07.632Z,1.60
2018-07-19T08:53:35.305Z,1.82
2018-07-19T08:56:02.920Z,1.50
2018-07-19T08:58:30.541Z,1.77
2018-07-19T09:00:59.147Z,1.80
2018-07-19T09:03:27.112Z,2.20
2018-07-19T09:05:54.735Z,1.82
2018-07-19T09:08:22.410Z,1.70
2018-07-19T09:10:50.067Z,1.98
2018-07-19T09:13:17.716Z,1.80
2018-07-19T09:15:45.368Z,2.17
2018-07-19T09:18:13.017Z,1.70
2018-07-19T09:20:40.604Z,1.62
2018-07-19T09:23:08.240Z,1.70
2018-07-19T09:25:35.858Z,1.62
2018-07-19T09:28:03.528Z,1.82
2018-07-19T09:30:31.149Z,1.70
2018-07-19T09:32:58.782Z,2.20
2018-07-19T09:35:26.412Z,2.12
2018-07-19T09:37:54.050Z,1.90
2018-07-19T09:40:21.657Z,1.95
2018-07-19T09:42:49.296Z,1.70
2018-07-19T09:45:17.027Z,2.20
2018-07-19T09:47:44.661Z,2.15
2018-07-19T09:50:12.281Z,1.60
2018-07-19T09:52:39.865Z,1.82
2018-07-19T09:55:07.452Z,1.90
2018-07-19T09:57:35.172Z,1.70
2018-07-19T10:00:02.893Z,1.95
2018-07-19T10:02:30.513Z,1.87
2018-07-19T10:04:58.113Z,1.52
2018-07-19T10:07:29.314Z,1.52
2018-07-19T10:09:56.965Z,1.50
2018-07-19T10:12:24.552Z,1.77
2018-07-19T10:14:52.157Z,1.60
2018-07-19T10:17:19.753Z,1.67
2018-07-19T10:19:47.412Z,1.50
2018-07-19T10:22:14.999Z,1.70
2018-07-19T10:24:42.727Z,2.00
2018-07-19T10:27:10.400Z,1.80
2018-07-19T10:29:38.160Z,1.65
2018-07-19T10:32:05.853Z,1.80
2018-07-19T10:34:33.486Z,1.50
2018-07-19T10:37:01.156Z,1.57
2018-07-19T10:39:28.823Z,1.60
2018-07-19T10:41:56.449Z,1.80
2018-07-19T10:44:24.075Z,2.20
2018-07-19T10:46:51.704Z,1.62
2018-07-19T10:49:19.321Z,1.95
2018-07-19T10:51:46.956Z,1.72
2018-07-19T10:54:14.506Z,1.65
2018-07-19T10:56:42.064Z,1.98
2018-07-19T10:59:09.800Z,1.90
2018-07-19T11:01:37.429Z,1.87
2018-07-19T11:04:05.094Z,1.40
2018-07-19T11:06:32.889Z,2.00
2018-07-19T11:09:00.631Z,1.65
2018-07-19T11:11:28.401Z,2.10
2018-07-19T11:13:56.041Z,1.80
2018-07-19T11:16:27.584Z,2.35
2018-07-19T11:18:55.163Z,2.15
2018-07-19T11:21:22.760Z,1.50
2018-07-19T11:23:50.333Z,2.02
2018-07-19T11:26:17.951Z,1.67
2018-07-19T11:28:45.662Z,1.80
2018-07-19T11:31:13.230Z,1.87
2018-07-19T11:33:40.820Z,1.60
2018-07-19T11:36:08.408Z,1.75
2018-07-19T11:38:36.010Z,1.60
2018-07-19T11:41:03.606Z,1.42
2018-07-19T11:43:31.196Z,1.70
2018-07-19T11:45:58.769Z,1.82
2018-07-19T11:48:26.362Z,1.98
2018-07-19T11:50:54.012Z,1.72
2018-07-19T11:53:21.601Z,1.77
2018-07-19T11:55:49.239Z,1.82
2018-07-19T11:58:16.838Z,1.82
2018-07-19T12:00:44.433Z,1.60
2018-07-19T12:03:12.026Z,1.67
2018-07-19T12:05:39.596Z,1.80
2018-07-19T12:08:07.184Z,1.67
2018-07-19T12:10:34.965Z,1.70
2018-07-19T12:13:02.584Z,2.00
2018-07-19T12:15:30.207Z,2.17
2018-07-19T12:17:57.772Z,1.70
2018-07-19T12:20:25.369Z,1.98
2018-07-19T12:22:53.013Z,1.92
2018-07-19T12:25:20.645Z,2.12
2018-07-19T12:27:48.237Z,1.70
2018-07-19T12:30:15.849Z,2.00
2018-07-19T12:32:43.413Z,1.85
2018-07-19T12:35:11.104Z,1.75
2018-07-19T12:37:38.682Z,2.20
2018-07-19T12:40:06.310Z,1.75
2018-07-19T12:42:36.632Z,1.77
2018-07-19T12:48:19.162Z,1.70
2018-07-19T12:51:00.055Z,1.82
2018-07-19T12:53:27.713Z,2.02
2018-07-19T12:55:59.113Z,1.50
2018-07-19T12:58:26.735Z,2.00
2018-07-19T13:00:54.374Z,2.20
2018-07-19T13:03:26.281Z,1.70
2018-07-19T13:05:59.575Z,2.00
2018-07-19T13:08:29.372Z,1.80
2018-07-19T13:10:56.928Z,2.00
2018-07-19T13:16:22.480Z,1.70
2018-07-19T13:18:50.185Z,1.62
2018-07-19T13:21:23.119Z,2.00
2018-07-19T13:24:09.766Z,1.80
2018-07-19T13:26:37.746Z,1.57
2018-07-19T13:29:05.419Z,1.60
2018-07-19T13:31:34.229Z,1.87
2018-07-19T13:34:01.861Z,1.90
2018-07-19T13:36:29.526Z,2.10
2018-07-19T13:38:59.251Z,1.95
2018-07-19T13:41:29.045Z,2.02
2018-07-19T13:43:56.913Z,1.98
2018-07-19T13:46:24.505Z,2.50
2018-07-19T13:48:52.049Z,1.90
2018-07-19T13:51:25.480Z,2.17
2018-07-19T13:54:17.249Z,2.00
2018-07-19T13:56:45.021Z,1.90
2018-07-19T13:59:13.281Z,2.27
2018-07-19T14:01:53.848Z,2.45
2018-07-19T14:04:21.400Z,2.00
2018-07-19T14:06:48.981Z,2.10
2018-07-19T14:09:16.628Z,2.05
2018-07-19T14:11:44.752Z,1.80
2018-07-19T14:14:12.392Z,1.92
2018-07-19T14:16:40.085Z,2.08
2018-07-19T14:19:09.801Z,1.90
2018-07-19T14:21:37.380Z,2.02
2018-07-19T14:24:05.248Z,1.80
2018-07-19T14:26:33.000Z,2.02
2018-07-19T14:29:02.577Z,1.80
2018-07-19T14:31:30.300Z,2.05
2018-07-19T14:34:01.153Z,1.85
2018-07-19T14:36:28.776Z,2.00
2018-07-19T14:38:59.964Z,1.98
2018-07-19T14:41:28.645Z,2.12
2018-07-19T14:44:09.042Z,1.98
2018-07-19T14:46:37.796Z,2.17
2018-07-19T14:49:10.112Z,1.67
2018-07-19T14:51:37.668Z,2.08
2018-07-19T14:54:24.209Z,2.33
2018-07-19T14:56:51.867Z,2.22
2018-07-19T14:59:19.457Z,1.98
2018-07-19T15:01:47.334Z,2.00
2018-07-19T15:04:15.009Z,1.77
2018-07-19T15:07:06.992Z,1.82
2018-07-19T15:09:34.863Z,1.55
2018-07-19T15:12:02.590Z,1.67
2018-07-19T15:14:30.184Z,1.80
2018-07-19T15:16:58.264Z,1.70
2018-07-19T15:19:25.845Z,2.12
2018-07-19T15:21:53.438Z,2.10
2018-07-19T15:24:21.044Z,1.90
2018-07-19T15:26:48.669Z,1.77
2018-07-19T15:29:16.194Z,1.92
2018-07-19T15:31:43.798Z,1.62
2018-07-19T15:34:11.424Z,1.82
2018-07-19T15:36:39.037Z,1.77
2018-07-19T15:39:08.536Z,2.00
2018-07-19T15:41:36.104Z,1.92
2018-07-19T15:44:10.796Z,1.67
2018-07-19T15:46:38.400Z,1.60
2018-07-19T15:49:09.120Z,1.80
2018-07-19T15:51:36.714Z,1.65
2018-07-19T15:54:04.401Z,1.90
2018-07-19T15:56:31.985Z,1.82
2018-07-19T15:59:00.518Z,1.50
2018-07-19T16:01:28.222Z,1.70
2018-07-19T16:03:55.852Z,1.60
2018-07-19T16:06:23.492Z,1.90
2018-07-19T16:08:51.136Z,1.60
2018-07-19T16:11:18.784Z,2.00
2018-07-19T16:13:46.388Z,1.50
2018-07-19T16:16:13.956Z,1.60
2018-07-19T16:18:41.600Z,1.80
2018-07-19T16:21:09.170Z,2.10
2018-07-19T16:23:36.792Z,1.80
2018-07-19T16:26:08.002Z,2.00
2018-07-19T16:28:35.617Z,1.57
2018-07-19T16:31:03.172Z,1.62
2018-07-19T16:33:30.786Z,1.50
2018-07-19T16:35:58.407Z,2.12
2018-07-19T16:38:26.106Z,1.87
2018-07-19T16:40:53.743Z,1.47
2018-07-19T16:43:22.328Z,1.60
2018-07-19T16:45:50.068Z,1.60
2018-07-19T16:48:17.692Z,1.70
2018-07-19T16:50:45.277Z,1.70
2018-07-19T16:53:12.896Z,1.85
2018-07-19T16:55:40.538Z,1.85
2018-07-19T16:58:08.220Z,1.70
2018-07-19T17:00:35.921Z,1.80
2018-07-19T17:03:03.632Z,1.85
2018-07-19T17:05:31.397Z,2.00
2018-07-19T17:08:03.560Z,1.80
2018-07-19T17:10:31.264Z,1.70
2018-07-19T17:12:59.075Z,1.50
2018-07-19T17:15:26.759Z,1.65
2018-07-19T17:17:54.401Z,1.27
2018-07-19T17:20:21.999Z,1.50
2018-07-19T17:22:49.641Z,1.85
2018-07-19T17:25:19.381Z,1.65
2018-07-19T17:27:47.083Z,1.67
2018-07-19T17:30:25.269Z,1.42
2018-07-19T17:32:52.971Z,1.57
2018-07-19T17:35:28.713Z,1.57
2018-07-19T17:37:56.402Z,1.70
2018-07-19T17:40:24.143Z,1.60
2018-07-19T17:42:51.721Z,1.70
2018-07-19T17:45:23.549Z,1.90
2018-07-19T17:47:51.276Z,1.80
2018-07-19T17:50:18.868Z,1.80
2018-07-19T17:52:46.623Z,1.87
2018-07-19T17:55:24.672Z,1.82
2018-07-19T17:57:52.399Z,1.52
2018-07-19T18:00:20.089Z,1.47
2018-07-19T18:02:47.854Z,1.50
2018-07-19T18:05:15.646Z,1.60
2018-07-19T18:07:43.292Z,1.70
2018-07-19T18:10:11.158Z,1.93
2018-07-19T18:12:38.807Z,4.42
2018-07-19T18:15:06.426Z,2.57
2018-07-19T18:17:34.072Z,1.80
2018-07-19T18:20:01.695Z,2.10
2018-07-19T18:22:29.401Z,1.87
2018-07-19T18:25:07.461Z,1.50
2018-07-19T18:27:36.708Z,1.60
2018-07-19T18:30:05.670Z,1.50
2018-07-19T18:32:33.323Z,1.10
2018-07-19T18:35:01.158Z,1.20
2018-07-19T18:37:28.708Z,1.47
2018-07-19T18:39:56.348Z,1.57
2018-07-19T18:42:24.132Z,1.40
2018-07-19T18:44:53.833Z,1.70
2018-07-19T18:47:21.477Z,1.33
2018-07-19T18:49:49.119Z,1.40
2018-07-19T18:52:17.058Z,1.20
2018-07-19T18:54:49.909Z,1.43
2018-07-19T18:57:18.427Z,1.30
2018-07-19T18:59:46.164Z,1.60
2018-07-19T19:02:13.885Z,1.40
2018-07-19T19:04:41.550Z,1.53
2018-07-19T19:07:09.161Z,1.77
2018-07-19T19:09:36.845Z,1.67
2018-07-19T19:12:04.524Z,1.55
2018-07-19T19:14:32.396Z,1.40
2018-07-19T19:17:00.004Z,1.60
2018-07-19T19:19:27.754Z,1.43
2018-07-19T19:21:55.534Z,1.23
2018-07-19T19:24:23.381Z,1.30
2018-07-19T19:26:51.021Z,1.50
2018-07-19T19:29:18.796Z,1.53
2018-07-19T19:31:46.455Z,1.70
2018-07-19T19:34:14.192Z,1.33
2018-07-19T19:36:42.077Z,1.33
2018-07-19T19:39:11.926Z,1.50
2018-07-19T19:41:39.889Z,1.60
2018-07-19T19:44:07.821Z,1.67
2018-07-19T19:46:35.529Z,1.70
2018-07-19T19:49:03.203Z,1.40
2018-07-19T19:51:30.903Z,1.40
2018-07-19T19:53:58.647Z,1.30
2018-07-19T19:56:26.317Z,1.30
2018-07-19T19:58:53.917Z,2.00
2018-07-19T20:01:21.562Z,1.70
2018-07-19T20:03:49.282Z,2.13
2018-07-19T20:06:17.932Z,2.10
2018-07-19T20:08:45.538Z,2.20
2018-07-19T20:11:13.241Z,2.03
2018-07-19T20:13:40.853Z,1.90
2018-07-19T20:16:08.443Z,1.73
2018-07-19T20:18:36.046Z,2.07
2018-07-19T20:21:03.734Z,1.80
2018-07-19T20:23:31.491Z,1.73
2018-07-19T20:25:59.126Z,1.40
2018-07-19T20:28:26.728Z,1.70
2018-07-19T20:30:54.336Z,1.30
2018-07-19T20:33:21.930Z,1.50
2018-07-19T20:35:49.576Z,1.27
2018-07-19T20:38:17.157Z,1.30
2018-07-19T20:40:44.800Z,1.10
2018-07-19T20:43:12.545Z,1.60
2018-07-19T20:45:40.164Z,1.53
2018-07-19T20:48:07.883Z,1.40
2018-07-19T20:50:35.530Z,1.20
2018-07-19T20:53:03.113Z,1.20
2018-07-19T20:55:31.740Z,1.20
2018-07-19T20:57:59.581Z,1.30
2018-07-19T21:00:27.192Z,1.50
2018-07-19T21:02:54.745Z,1.40
2018-07-19T21:05:22.576Z,1.27
2018-07-19T21:07:50.164Z,1.47
2018-07-19T21:10:17.733Z,1.20
2018-07-19T21:12:45.371Z,1.70
2018-07-19T21:15:13.038Z,1.67
2018-07-19T21:17:40.673Z,1.67
2018-07-19T21:20:08.311Z,2.00
2018-07-19T21:22:35.904Z,2.40
2018-07-19T21:25:03.724Z,1.80
2018-07-19T21:27:31.387Z,2.20
2018-07-19T21:29:59.099Z,2.43
2018-07-19T21:32:26.767Z,2.27
2018-07-19T21:34:54.426Z,2.47
2018-07-19T21:37:22.032Z,2.60
2018-07-19T21:39:49.666Z,1.33
2018-07-19T21:42:17.324Z,1.30
2018-07-19T21:44:44.929Z,1.53
2018-07-19T21:47:12.632Z,1.40
2018-07-19T21:49:40.273Z,1.63
2018-07-19T21:52:07.932Z,1.80
2018-07-19T21:54:35.496Z,1.57
2018-07-19T21:57:03.164Z,1.47
2018-07-19T21:59:30.776Z,2.03
2018-07-19T22:01:58.526Z,1.30
2018-07-19T22:04:26.228Z,1.40
2018-07-19T22:06:53.925Z,1.63
2018-07-19T22:09:22.853Z,1.50
2018-07-19T22:11:51.084Z,1.80
2018-07-19T22:14:18.724Z,1.60
2018-07-19T22:16:46.373Z,1.50
2018-07-19T22:19:13.967Z,1.77
2018-07-19T22:21:41.565Z,1.40
2018-07-19T22:24:09.217Z,1.60
2018-07-19T22:26:36.847Z,1.60
2018-07-19T22:29:04.536Z,1.10
2018-07-19T22:31:32.108Z,1.60
2018-07-19T22:33:59.689Z,1.27
2018-07-19T22:36:27.269Z,1.23
2018-07-19T22:38:54.920Z,1.30
2018-07-19T22:41:22.543Z,0.93
2018-07-19T22:43:50.372Z,1.03
2018-07-19T22:46:17.998Z,1.03
2018-07-19T22:48:45.660Z,1.03
2018-07-19T22:51:13.314Z,1.30
2018-07-19T22:53:40.926Z,2.30
2018-07-19T22:56:08.576Z,1.57
2018-07-19T22:58:36.181Z,1.40
2018-07-19T23:01:03.822Z,1.33
2018-07-19T23:03:31.453Z,1.50
2018-07-19T23:05:59.051Z,1.53
2018-07-19T23:08:26.644Z,1.30
2018-07-19T23:10:54.225Z,1.20
2018-07-19T23:13:21.804Z,1.00
2018-07-19T23:15:49.391Z,1.63
2018-07-19T23:18:17.064Z,1.00
2018-07-19T23:20:44.857Z,0.87
2018-07-19T23:23:12.476Z,1.20
2018-07-19T23:25:40.151Z,1.60
2018-07-19T23:28:08.656Z,1.30
2018-07-19T23:30:36.992Z,1.10
2018-07-19T23:33:04.787Z,1.53
2018-07-19T23:35:37.656Z,1.00
2018-07-19T23:38:08.379Z,1.10
2018-07-19T23:40:38.889Z,1.00
2018-07-19T23:43:19.290Z,1.23
2018-07-19T23:45:52.556Z,1.13
2018-07-19T23:48:20.416Z,1.50
2018-07-19T23:50:48.012Z,1.30
2018-07-19T23:53:15.645Z,1.00
2018-07-19T23:55:43.241Z,1.40
2018-07-19T23:58:10.946Z,1.13
